createdAt,value
2018-08-25T00:00:06.087Z,19.93
2018-08-25T00:02:35.111Z,19.93
2018-08-25T00:05:04.316Z,19.82
2018-08-25T00:07:33.562Z,19.82
2018-08-25T00:10:02.801Z,19.75
2018-08-25T00:12:31.727Z,19.70
2018-08-25T00:15:01.138Z,19.71
2018-08-25T00:17:30.107Z,19.77
2018-08-25T00:19:59.218Z,19.80
2018-08-25T00:22:28.546Z,19.79
2018-08-25T00:24:57.596Z,19.83
2018-08-25T00:27:26.611Z,19.87
2018-08-25T00:29:55.922Z,19.99
2018-08-25T00:32:25.023Z,20.04
2018-08-25T00:34:54.183Z,20.08
2018-08-25T00:37:23.377Z,20.11
2018-08-25T00:39:52.456Z,20.06
2018-08-25T00:42:21.386Z,20.10
2018-08-25T00:44:50.988Z,20.10
2018-08-25T00:47:20.194Z,20.11
2018-08-25T00:49:49.284Z,20.13
2018-08-25T00:52:18.815Z,20.09
2018-08-25T00:54:48.073Z,20.14
2018-08-25T00:57:17.264Z,20.16
2018-08-25T00:59:46.383Z,20.26
2018-08-25T01:02:15.402Z,20.24
2018-08-25T01:04:44.507Z,20.21
2018-08-25T01:07:14.074Z,20.25
2018-08-25T01:09:43.098Z,20.20
2018-08-25T01:12:12.215Z,20.13
2018-08-25T01:14:41.691Z,20.12
2018-08-25T01:17:10.905Z,20.09
2018-08-25T01:19:39.981Z,19.98
2018-08-25T01:22:09.313Z,19.78
2018-08-25T01:24:38.375Z,19.61
2018-08-25T01:27:07.592Z,19.52
2018-08-25T01:29:36.798Z,19.38
2018-08-25T01:32:05.890Z,19.21
2018-08-25T01:34:35.051Z,19.13
2018-08-25T01:37:04.590Z,19.04
2018-08-25T01:39:33.696Z,18.92
2018-08-25T01:42:02.637Z,18.91
2018-08-25T01:44:31.679Z,18.92
2018-08-25T01:47:01.015Z,18.86
2018-08-25T01:49:30.065Z,18.67
2018-08-25T01:51:59.591Z,18.61
2018-08-25T01:54:28.571Z,18.64
2018-08-25T01:56:57.876Z,18.61
2018-08-25T01:59:27.096Z,18.59
2018-08-25T02:01:56.059Z,18.42
2018-08-25T02:04:25.053Z,18.33
2018-08-25T02:06:54.102Z,18.33
2018-08-25T02:09:23.042Z,18.34
2018-08-25T02:11:52.050Z,18.27
2018-08-25T02:14:21.562Z,18.18
2018-08-25T02:16:50.536Z,18.17
2018-08-25T02:19:19.436Z,18.17
2018-08-25T02:21:48.822Z,18.14
2018-08-25T02:24:17.848Z,18.12
2018-08-25T02:26:47.118Z,18.01
2018-08-25T02:29:16.634Z,17.90
2018-08-25T02:31:45.716Z,17.79
2018-08-25T02:34:14.905Z,17.72
2018-08-25T02:36:44.381Z,17.71
2018-08-25T02:39:14.453Z,17.72
2018-08-25T02:41:44.155Z,17.74
2018-08-25T02:44:13.211Z,17.69
2018-08-25T02:46:42.369Z,17.68
2018-08-25T02:49:11.364Z,17.68
2018-08-25T02:51:40.387Z,17.69
2018-08-25T02:54:09.668Z,17.72
2018-08-25T02:56:38.657Z,17.68
2018-08-25T02:59:07.622Z,17.63
2018-08-25T03:01:36.772Z,17.68
2018-08-25T03:04:05.678Z,17.66
2018-08-25T03:06:34.757Z,17.63
2018-08-25T03:09:04.483Z,17.67
2018-08-25T03:11:33.427Z,17.63
2018-08-25T03:14:02.559Z,17.66
2018-08-25T03:16:31.515Z,17.61
2018-08-25T03:19:00.506Z,17.54
2018-08-25T03:21:29.882Z,17.60
2018-08-25T03:23:59.099Z,17.60
2018-08-25T03:26:28.124Z,17.57
2018-08-25T03:28:57.442Z,17.50
2018-08-25T03:31:26.525Z,17.55
2018-08-25T03:33:55.726Z,17.52
2018-08-25T03:36:25.098Z,17.57
2018-08-25T03:38:54.302Z,17.54
2018-08-25T03:41:23.271Z,17.59
2018-08-25T03:43:53.196Z,17.62
2018-08-25T03:46:22.330Z,17.70
2018-08-25T03:48:51.462Z,17.72
2018-08-25T03:51:20.564Z,17.70
2018-08-25T03:53:49.999Z,17.70
2018-08-25T03:56:19.440Z,17.79
2018-08-25T03:58:48.757Z,17.99
2018-08-25T04:01:18.036Z,18.23
2018-08-25T04:03:47.048Z,18.45
2018-08-25T04:06:16.619Z,18.68
2018-08-25T04:08:45.527Z,18.97
2018-08-25T04:11:14.526Z,19.35
2018-08-25T04:13:43.628Z,19.78
2018-08-25T04:16:12.501Z,20.19
2018-08-25T04:18:41.519Z,20.63
2018-08-25T04:21:10.822Z,20.98
2018-08-25T04:23:39.805Z,21.36
2018-08-25T04:26:08.871Z,21.84
2018-08-25T04:28:38.222Z,22.21
2018-08-25T04:31:07.194Z,22.62
2018-08-25T04:33:36.145Z,23.02
2018-08-25T04:36:05.119Z,23.27
2018-08-25T04:38:34.377Z,23.71
2018-08-25T04:41:03.350Z,23.91
2018-08-25T04:43:32.384Z,24.14
2018-08-25T04:46:01.486Z,24.38
2018-08-25T04:48:30.611Z,24.36
2018-08-25T04:50:59.669Z,24.87
2018-08-25T04:53:28.751Z,25.61
2018-08-25T04:55:58.078Z,26.13
2018-08-25T04:58:27.272Z,26.51
2018-08-25T05:00:56.267Z,26.55
2018-08-25T05:03:25.390Z,26.85
2018-08-25T05:05:54.451Z,26.85
2018-08-25T05:08:23.915Z,26.93
2018-08-25T05:10:53.099Z,27.32
2018-08-25T05:13:22.146Z,27.51
2018-08-25T05:15:51.332Z,27.75
2018-08-25T05:18:20.789Z,27.90
2018-08-25T05:20:49.940Z,28.13
2018-08-25T05:23:18.835Z,28.64
2018-08-25T05:25:48.148Z,28.56
2018-08-25T05:28:17.154Z,28.33
2018-08-25T05:30:46.131Z,28.71
2018-08-25T05:33:15.577Z,29.34
2018-08-25T05:35:44.746Z,29.80
2018-08-25T05:38:13.760Z,30.03
2018-08-25T05:40:46.417Z,28.98
2018-08-25T05:43:15.520Z,29.54
2018-08-25T05:45:45.283Z,30.40
2018-08-25T05:48:14.955Z,31.05
2018-08-25T05:50:44.252Z,31.25
2018-08-25T05:53:13.510Z,31.22
2018-08-25T05:55:44.171Z,30.93
2018-08-25T05:58:14.388Z,30.72
2018-08-25T06:00:43.586Z,29.93
2018-08-25T06:03:13.088Z,29.25
2018-08-25T06:05:42.183Z,28.08
2018-08-25T06:08:11.194Z,27.84
2018-08-25T06:10:40.539Z,27.42
2018-08-25T06:13:09.700Z,27.25
2018-08-25T06:15:38.827Z,27.10
2018-08-25T06:18:08.510Z,26.89
2018-08-25T06:20:37.675Z,27.06
2018-08-25T06:23:06.844Z,27.33
2018-08-25T06:25:36.223Z,27.37
2018-08-25T06:28:05.303Z,28.44
2018-08-25T06:30:34.487Z,29.18
2018-08-25T06:33:03.769Z,29.77
2018-08-25T06:35:32.768Z,31.51
2018-08-25T06:38:01.726Z,31.96
2018-08-25T06:40:30.863Z,33.05
2018-08-25T06:43:00.074Z,33.42
2018-08-25T06:45:29.287Z,33.28
2018-08-25T06:47:58.807Z,33.40
2018-08-25T06:50:27.994Z,33.75
2018-08-25T06:52:57.095Z,33.58
2018-08-25T06:55:26.307Z,33.32
2018-08-25T06:57:55.277Z,33.53
2018-08-25T07:02:52.470Z,34.53
2018-08-25T07:05:21.558Z,34.81
2018-08-25T07:07:51.084Z,34.28
2018-08-25T07:10:20.481Z,34.09
2018-08-25T07:12:49.620Z,33.47
2018-08-25T07:15:18.744Z,34.06
2018-08-25T07:17:47.835Z,33.51
2018-08-25T07:20:16.524Z,33.09
2018-08-25T07:22:45.518Z,32.25
2018-08-25T07:25:15.151Z,32.72
2018-08-25T07:27:44.435Z,31.39
2018-08-25T07:30:13.467Z,31.61
2018-08-25T07:32:42.524Z,32.26
2018-08-25T07:35:11.636Z,31.48
2018-08-25T07:37:40.629Z,31.98
2018-08-25T07:40:10.075Z,32.48
2018-08-25T07:42:39.124Z,33.39
2018-08-25T07:45:08.291Z,33.25
2018-08-25T07:47:37.252Z,32.49
2018-08-25T07:50:06.511Z,32.05
2018-08-25T07:52:35.519Z,31.50
2018-08-25T07:55:04.947Z,30.64
2018-08-25T07:57:34.014Z,31.73
2018-08-25T08:00:02.855Z,31.61
2018-08-25T08:02:31.956Z,32.15
2018-08-25T08:05:01.027Z,31.45
2018-08-25T08:07:30.193Z,30.44
2018-08-25T08:09:59.409Z,30.38
2018-08-25T08:12:28.321Z,31.31
2018-08-25T08:14:57.524Z,32.41
2018-08-25T08:17:27.008Z,31.93
2018-08-25T08:19:56.119Z,32.56
2018-08-25T08:22:25.284Z,32.64
2018-08-25T08:24:54.400Z,32.71
2018-08-25T08:27:23.325Z,33.05
2018-08-25T08:29:52.302Z,32.99
2018-08-25T08:32:21.803Z,33.70
2018-08-25T08:34:50.802Z,33.43
2018-08-25T08:37:19.755Z,33.97
2018-08-25T08:39:49.131Z,33.92
2018-08-25T08:42:18.315Z,33.62
2018-08-25T08:44:47.263Z,33.40
2018-08-25T08:47:16.745Z,32.81
2018-08-25T08:49:46.908Z,33.62
2018-08-25T08:52:14.640Z,31.63
2018-08-25T08:54:43.564Z,31.41
2018-08-25T08:57:12.623Z,32.41
2018-08-25T08:59:41.556Z,31.85
2018-08-25T09:02:11.038Z,32.76
2018-08-25T09:04:40.143Z,32.37
2018-08-25T09:07:09.414Z,31.82
2018-08-25T09:09:38.454Z,31.66
2018-08-25T09:12:07.731Z,31.04
2018-08-25T09:14:36.817Z,31.96
2018-08-25T09:17:06.251Z,31.74
2018-08-25T09:19:35.383Z,31.97
2018-08-25T09:22:04.182Z,31.96
2018-08-25T09:24:33.396Z,31.92
2018-08-25T09:27:02.479Z,31.25
2018-08-25T09:29:31.230Z,30.53
2018-08-25T09:32:00.436Z,30.86
2018-08-25T09:34:29.390Z,31.18
2018-08-25T09:36:58.290Z,31.65
2018-08-25T09:39:27.599Z,31.52
2018-08-25T09:41:56.555Z,30.87
2018-08-25T09:44:25.317Z,30.92
2018-08-25T09:46:54.275Z,30.80
2018-08-25T09:49:23.223Z,30.34
2018-08-25T09:51:52.230Z,29.70
2018-08-25T09:54:21.671Z,29.15
2018-08-25T09:56:50.516Z,29.28
2018-08-25T09:59:19.615Z,29.90
2018-08-25T10:01:53.921Z,29.97
2018-08-25T10:04:22.830Z,30.22
2018-08-25T10:06:51.898Z,30.22
2018-08-25T10:09:21.000Z,30.47
2018-08-25T10:11:49.791Z,30.42
2018-08-25T10:14:18.681Z,30.66
2018-08-25T10:16:47.772Z,30.93
2018-08-25T10:19:16.686Z,30.77
2018-08-25T10:21:45.778Z,30.53
2018-08-25T10:24:14.841Z,30.75
2018-08-25T10:26:43.789Z,31.06
2018-08-25T10:29:12.963Z,30.99
2018-08-25T10:31:42.320Z,31.13
2018-08-25T10:34:11.263Z,31.23
2018-08-25T10:36:40.461Z,31.35
2018-08-25T10:39:11.782Z,31.28
2018-08-25T10:41:40.903Z,30.84
2018-08-25T10:44:09.902Z,31.39
2018-08-25T10:46:40.230Z,30.90
2018-08-25T10:49:09.229Z,29.83
2018-08-25T10:51:38.566Z,29.83
2018-08-25T10:54:08.258Z,29.73
2018-08-25T10:56:37.139Z,30.44
2018-08-25T10:59:06.191Z,30.91
2018-08-25T11:01:35.535Z,31.22
2018-08-25T11:04:04.537Z,30.12
2018-08-25T11:06:33.495Z,30.43
2018-08-25T11:09:02.583Z,30.18
2018-08-25T11:11:31.486Z,30.15
2018-08-25T11:14:00.282Z,30.65
2018-08-25T11:16:29.909Z,30.85
2018-08-25T11:18:58.771Z,31.42
2018-08-25T11:21:27.893Z,30.78
2018-08-25T11:23:57.367Z,30.76
2018-08-25T11:26:26.286Z,30.95
2018-08-25T11:28:55.102Z,30.50
2018-08-25T11:31:24.191Z,29.82
2018-08-25T11:33:53.369Z,29.71
2018-08-25T11:36:22.560Z,30.08
2018-08-25T11:38:51.856Z,30.17
2018-08-25T11:41:20.850Z,29.97
2018-08-25T11:43:49.966Z,29.42
2018-08-25T11:46:19.318Z,29.34
2018-08-25T11:48:48.119Z,29.38
2018-08-25T11:51:16.942Z,30.07
2018-08-25T11:53:46.266Z,30.61
2018-08-25T11:56:15.341Z,30.80
2018-08-25T11:58:44.523Z,30.94
2018-08-25T12:01:13.436Z,31.33
2018-08-25T12:03:42.512Z,31.63
2018-08-25T12:06:11.606Z,31.69
2018-08-25T12:08:40.876Z,31.80
2018-08-25T12:11:09.919Z,30.95
2018-08-25T12:13:39.001Z,30.86
2018-08-25T12:16:08.177Z,30.88
2018-08-25T12:18:37.021Z,30.26
2018-08-25T12:21:06.085Z,30.15
2018-08-25T12:23:35.408Z,30.20
2018-08-25T12:26:04.683Z,29.94
2018-08-25T12:28:33.613Z,29.78
2018-08-25T12:31:02.835Z,30.17
2018-08-25T12:33:31.825Z,30.12
2018-08-25T12:36:00.654Z,30.00
2018-08-25T12:38:29.919Z,29.70
2018-08-25T12:40:58.854Z,29.60
2018-08-25T12:43:28.014Z,29.71
2018-08-25T12:45:56.989Z,29.97
2018-08-25T12:48:25.934Z,30.03
2018-08-25T12:50:54.834Z,29.99
2018-08-25T12:53:24.538Z,29.85
2018-08-25T12:55:53.524Z,29.97
2018-08-25T12:58:22.627Z,29.73
2018-08-25T13:00:52.040Z,29.26
2018-08-25T13:03:21.111Z,29.47
2018-08-25T13:05:50.028Z,29.70
2018-08-25T13:08:19.396Z,29.80
2018-08-25T13:10:48.600Z,29.62
2018-08-25T13:13:17.697Z,29.51
2018-08-25T13:15:47.029Z,28.90
2018-08-25T13:18:16.031Z,28.97
2018-08-25T13:20:45.196Z,29.10
2018-08-25T13:23:14.543Z,29.26
2018-08-25T13:25:43.629Z,29.34
2018-08-25T13:28:12.635Z,29.18
2018-08-25T13:30:41.978Z,29.35
2018-08-25T13:33:10.889Z,29.21
2018-08-25T13:35:39.890Z,28.96
2018-08-25T13:38:09.524Z,28.93
2018-08-25T13:40:38.492Z,28.91
2018-08-25T13:43:07.706Z,28.76
2018-08-25T13:45:36.695Z,28.29
2018-08-25T13:48:06.403Z,28.21
2018-08-25T13:50:35.463Z,27.82
2018-08-25T13:53:04.799Z,27.54
2018-08-25T13:55:33.731Z,27.35
2018-08-25T13:58:02.672Z,27.39
2018-08-25T14:00:31.824Z,27.25
2018-08-25T14:03:00.779Z,27.00
2018-08-25T14:05:29.756Z,26.83
2018-08-25T14:07:59.393Z,27.12
2018-08-25T14:10:28.559Z,27.43
2018-08-25T14:12:57.518Z,27.74
2018-08-25T14:15:26.757Z,27.93
2018-08-25T14:17:55.567Z,27.97
2018-08-25T14:20:24.443Z,28.16
2018-08-25T14:22:53.608Z,28.24
2018-08-25T14:25:22.527Z,28.16
2018-08-25T14:27:51.537Z,28.24
2018-08-25T14:30:21.101Z,28.61
2018-08-25T14:32:50.195Z,28.85
2018-08-25T14:35:19.089Z,29.03
2018-08-25T14:37:48.563Z,29.20
2018-08-25T14:40:17.682Z,29.34
2018-08-25T14:42:46.719Z,29.40
2018-08-25T14:45:16.176Z,29.06
2018-08-25T14:47:45.103Z,28.91
2018-08-25T14:50:13.878Z,28.99
2018-08-25T14:52:43.044Z,29.27
2018-08-25T14:55:12.287Z,29.42
2018-08-25T14:57:41.059Z,29.43
2018-08-25T15:00:10.031Z,29.54
2018-08-25T15:02:39.068Z,29.82
2018-08-25T15:05:08.072Z,30.02
2018-08-25T15:07:36.945Z,30.18
2018-08-25T15:10:06.469Z,29.98
2018-08-25T15:12:35.310Z,29.99
2018-08-25T15:15:04.596Z,30.02
2018-08-25T15:17:33.543Z,30.14
2018-08-25T15:20:02.650Z,30.37
2018-08-25T15:22:31.626Z,30.60
2018-08-25T15:25:00.758Z,30.83
2018-08-25T15:27:29.731Z,30.85
2018-08-25T15:29:58.907Z,30.58
2018-08-25T15:32:27.648Z,30.77
2018-08-25T15:34:56.613Z,30.34
2018-08-25T15:37:25.541Z,30.14
2018-08-25T15:39:54.591Z,30.05
2018-08-25T15:42:23.683Z,29.73
2018-08-25T15:44:53.718Z,29.19
2018-08-25T15:47:22.585Z,28.76
2018-08-25T15:49:51.664Z,28.30
2018-08-25T15:52:20.708Z,28.19
2018-08-25T15:54:49.580Z,27.77
2018-08-25T15:57:18.447Z,27.34
2018-08-25T15:59:47.816Z,27.17
2018-08-25T16:02:17.752Z,26.83
2018-08-25T16:04:46.840Z,26.64
2018-08-25T16:07:17.093Z,26.56
2018-08-25T16:09:47.045Z,26.50
2018-08-25T16:12:16.513Z,26.45
2018-08-25T16:14:47.354Z,26.43
2018-08-25T16:17:16.935Z,26.49
2018-08-25T16:19:46.094Z,26.50
2018-08-25T16:22:15.628Z,26.41
2018-08-25T16:24:45.008Z,26.46
2018-08-25T16:27:14.926Z,26.51
2018-08-25T16:29:44.140Z,26.57
2018-08-25T16:32:14.596Z,26.51
2018-08-25T16:34:44.033Z,26.50
2018-08-25T16:37:13.956Z,26.44
2018-08-25T16:39:43.999Z,26.32
2018-08-25T16:42:12.939Z,26.22
2018-08-25T16:44:42.279Z,26.19
2018-08-25T16:47:11.110Z,26.17
2018-08-25T16:49:40.311Z,26.04
2018-08-25T16:52:09.423Z,25.93
2018-08-25T16:54:38.199Z,25.78
2018-08-25T16:57:09.166Z,25.68
2018-08-25T16:59:37.876Z,25.55
2018-08-25T17:02:07.160Z,25.67
2018-08-25T17:04:36.074Z,25.63
2018-08-25T17:07:05.705Z,25.75
2018-08-25T17:09:34.496Z,25.63
2018-08-25T17:12:03.531Z,25.52
2018-08-25T17:14:33.037Z,25.55
2018-08-25T17:17:01.818Z,25.49
2018-08-25T17:19:30.826Z,25.43
2018-08-25T17:22:00.383Z,25.30
2018-08-25T17:24:29.347Z,25.22
2018-08-25T17:26:59.789Z,25.19
2018-08-25T17:29:30.244Z,25.13
2018-08-25T17:31:59.370Z,25.13
2018-08-25T17:34:28.358Z,25.09
2018-08-25T17:36:59.071Z,24.91
2018-08-25T17:39:29.080Z,24.75
2018-08-25T17:41:58.515Z,24.65
2018-08-25T17:44:27.762Z,24.48
2018-08-25T17:46:56.869Z,24.45
2018-08-25T17:49:25.787Z,24.32
2018-08-25T17:51:54.955Z,24.26
2018-08-25T17:54:23.839Z,24.19
2018-08-25T17:56:53.198Z,24.13
2018-08-25T17:59:22.359Z,24.12
2018-08-25T18:01:51.395Z,24.13
2018-08-25T18:04:20.167Z,24.07
2018-08-25T18:06:49.458Z,24.01
2018-08-25T18:09:18.278Z,24.00
2018-08-25T18:11:47.254Z,23.88
2018-08-25T18:14:16.193Z,23.83
2018-08-25T18:16:45.107Z,23.81
2018-08-25T18:19:14.035Z,23.78
2018-08-25T18:21:43.166Z,23.73
2018-08-25T18:24:12.330Z,23.67
2018-08-25T18:26:41.127Z,23.65
2018-08-25T18:29:10.195Z,23.62
2018-08-25T18:31:39.147Z,23.57
2018-08-25T18:34:08.000Z,23.46
2018-08-25T18:36:36.941Z,23.47
2018-08-25T18:39:08.947Z,23.42
2018-08-25T18:41:38.301Z,23.35
2018-08-25T18:44:07.738Z,23.34
2018-08-25T18:46:36.751Z,23.30
2018-08-25T18:49:05.742Z,23.38
2018-08-25T18:51:34.844Z,23.35
2018-08-25T18:54:03.733Z,23.30
2018-08-25T18:56:32.958Z,23.22
2018-08-25T18:59:01.994Z,23.18
2018-08-25T19:01:30.910Z,23.17
2018-08-25T19:04:00.037Z,23.09
2018-08-25T19:06:29.214Z,23.02
2018-08-25T19:08:58.111Z,23.02
2018-08-25T19:11:27.207Z,23.05
2018-08-25T19:13:55.969Z,22.86
2018-08-25T19:16:24.983Z,22.82
2018-08-25T19:18:54.128Z,22.80
2018-08-25T19:21:23.153Z,22.74
2018-08-25T19:23:51.908Z,22.66
2018-08-25T19:26:21.379Z,22.64
2018-08-25T19:28:50.363Z,22.58
2018-08-25T19:31:19.242Z,22.56
2018-08-25T19:33:48.899Z,22.53
2018-08-25T19:36:17.663Z,22.51
2018-08-25T19:38:46.736Z,22.55
2018-08-25T19:41:16.279Z,22.44
2018-08-25T19:43:45.140Z,22.48
2018-08-25T19:46:14.161Z,22.40
2018-08-25T19:48:43.583Z,22.28
2018-08-25T19:51:12.503Z,22.18
2018-08-25T19:53:41.322Z,22.18
2018-08-25T19:56:10.749Z,22.03
2018-08-25T19:58:39.607Z,21.91
2018-08-25T20:01:08.479Z,21.88
2018-08-25T20:03:37.630Z,21.81
2018-08-25T20:06:07.305Z,21.63
2018-08-25T20:08:36.399Z,21.61
2018-08-25T20:11:05.333Z,21.55
2018-08-25T20:13:34.285Z,21.53
2018-08-25T20:16:03.278Z,21.43
2018-08-25T20:18:32.086Z,21.37
2018-08-25T20:21:01.269Z,21.27
2018-08-25T20:23:30.042Z,21.27
2018-08-25T20:25:59.508Z,21.36
2018-08-25T20:28:28.516Z,21.33
2018-08-25T20:30:57.965Z,21.27
2018-08-25T20:33:27.712Z,21.22
2018-08-25T20:35:56.561Z,21.19
2018-08-25T20:38:25.450Z,21.08
2018-08-25T20:40:55.328Z,21.00
2018-08-25T20:43:24.749Z,20.94
2018-08-25T20:45:53.884Z,20.90
2018-08-25T20:48:23.306Z,20.89
2018-08-25T20:50:52.463Z,20.93
2018-08-25T20:53:21.556Z,20.91
2018-08-25T20:55:50.483Z,20.85
2018-08-25T20:58:19.523Z,20.84
2018-08-25T21:00:48.520Z,20.81
2018-08-25T21:03:17.630Z,20.82
2018-08-25T21:05:46.512Z,20.75
2018-08-25T21:08:15.521Z,20.75
2018-08-25T21:10:44.841Z,20.70
2018-08-25T21:13:13.919Z,20.63
2018-08-25T21:15:42.931Z,20.68
2018-08-25T21:18:11.811Z,20.62
2018-08-25T21:20:40.794Z,20.58
2018-08-25T21:23:09.702Z,20.55
2018-08-25T21:25:38.675Z,20.62
2018-08-25T21:28:10.335Z,20.56
2018-08-25T21:30:40.315Z,20.49
2018-08-25T21:33:09.247Z,20.44
2018-08-25T21:35:38.666Z,20.37
2018-08-25T21:38:08.611Z,20.37
2018-08-25T21:40:37.656Z,20.40
2018-08-25T21:43:06.547Z,20.31
2018-08-25T21:45:35.995Z,20.23
2018-08-25T21:48:05.058Z,20.24
2018-08-25T21:50:34.055Z,20.15
2018-08-25T21:53:03.299Z,20.12
2018-08-25T21:55:32.423Z,20.07
2018-08-25T21:58:02.080Z,20.08
2018-08-25T22:00:31.563Z,20.07
2018-08-25T22:03:01.066Z,20.05
2018-08-25T22:05:30.266Z,20.02
2018-08-25T22:07:59.509Z,19.93
2018-08-25T22:10:33.518Z,19.90
2018-08-25T22:13:03.531Z,19.87
2018-08-25T22:15:32.695Z,19.89
2018-08-25T22:18:01.654Z,19.85
2018-08-25T22:20:30.822Z,19.83
2018-08-25T22:22:59.760Z,19.92
2018-08-25T22:25:28.775Z,19.94
2018-08-25T22:27:57.967Z,19.94
2018-08-25T22:30:29.307Z,19.87
2018-08-25T22:33:35.831Z,19.86
2018-08-25T22:36:06.870Z,19.81
2018-08-25T22:38:35.756Z,19.72
2018-08-25T22:41:04.477Z,19.76
2018-08-25T22:43:34.686Z,19.73
2018-08-25T22:46:03.810Z,19.70
2018-08-25T22:48:32.626Z,19.60
2018-08-25T22:51:01.282Z,19.52
2018-08-25T22:53:31.178Z,19.50
2018-08-25T22:56:00.833Z,19.49
2018-08-25T22:58:29.714Z,19.48
2018-08-25T23:00:58.454Z,19.47
2018-08-25T23:03:27.199Z,19.40
2018-08-25T23:05:56.080Z,19.34
2018-08-25T23:08:25.454Z,19.27
2018-08-25T23:10:54.428Z,19.22
2018-08-25T23:13:23.152Z,19.35
2018-08-25T23:15:52.951Z,19.24
2018-08-25T23:18:22.013Z,19.21
2018-08-25T23:20:51.151Z,19.12
2018-08-25T23:23:20.336Z,19.05
2018-08-25T23:25:49.653Z,19.03
2018-08-25T23:28:18.393Z,18.98
2018-08-25T23:30:47.670Z,19.00
2018-08-25T23:33:17.317Z,19.06
2018-08-25T23:35:46.697Z,18.96
2018-08-25T23:38:15.841Z,18.92
2018-08-25T23:40:44.566Z,18.97
2018-08-25T23:43:13.885Z,18.95
2018-08-25T23:45:43.159Z,18.97
2018-08-25T23:48:12.622Z,18.99
2018-08-25T23:50:41.783Z,19.00
2018-08-25T23:53:11.221Z,18.97
2018-08-25T23:55:39.951Z,18.97
2018-08-25T23:58:08.674Z,18.97
